sensor_id;sensor_type;location;lat;lon;timestamp;P1;durP1;ratioP1;P2;durP2;ratioP2
38865;SDS011;62686;48.984;8.394;2024-03-23T00:52:59;10.40;;;6.43;;
38865;SDS011;62686;48.984;8.394;2024-03-23T00:55:26;11.57;;;6.88;;
38865;SDS011;62686;48.984;8.394;2024-03-23T00:57:55;10.82;;;6.45;;
38865;SDS011;62686;48.984;8.394;2024-03-23T01:00:21;13.25;;;7.20;;
38865;SDS011;62686;48.984;8.394;2024-03-23T01:02:49;10.87;;;6.37;;
38865;SDS011;62686;48.984;8.394;2024-03-23T01:05:18;10.52;;;7.00;;
38865;SDS011;62686;48.984;8.394;2024-03-23T01:07:46;11.70;;;6.55;;
38865;SDS011;62686;48.984;8.394;2024-03-23T01:10:14;9.60;;;5.93;;
38865;SDS011;62686;48.984;8.394;2024-03-23T01:12:42;7.00;;;4.68;;
38865;SDS011;62686;48.984;8.394;2024-03-23T01:15:08;10.50;;;5.43;;
38865;SDS011;62686;48.984;8.394;2024-03-23T01:17:36;7.50;;;5.10;;
38865;SDS011;62686;48.984;8.394;2024-03-23T01:20:03;8.07;;;5.45;;
38865;SDS011;62686;48.984;8.394;2024-03-23T01:22:32;9.63;;;5.85;;
38865;SDS011;62686;48.984;8.394;2024-03-23T01:24:58;6.78;;;4.95;;
38865;SDS011;62686;48.984;8.394;2024-03-23T01:27:27;7.17;;;4.70;;
38865;SDS011;62686;48.984;8.394;2024-03-23T01:29:53;10.43;;;5.78;;
38865;SDS011;62686;48.984;8.394;2024-03-23T01:32:21;10.63;;;5.43;;
38865;SDS011;62686;48.984;8.394;2024-03-23T01:34:49;7.93;;;4.93;;
38865;SDS011;62686;48.984;8.394;2024-03-23T01:37:16;8.70;;;5.20;;
38865;SDS011;62686;48.984;8.394;2024-03-23T01:39:43;9.07;;;4.53;;
38865;SDS011;62686;48.984;8.394;2024-03-23T01:42:10;7.72;;;4.85;;
38865;SDS011;62686;48.984;8.394;2024-03-23T01:44:39;10.65;;;4.68;;
38865;SDS011;62686;48.984;8.394;2024-03-23T01:47:06;8.38;;;4.95;;
38865;SDS011;62686;48.984;8.394;2024-03-23T01:49:33;8.07;;;4.80;;
38865;SDS011;62686;48.984;8.394;2024-03-23T01:52:00;7.13;;;4.57;;
38865;SDS011;62686;48.984;8.394;2024-03-23T02:02:30;8.00;;;4.28;;
38865;SDS011;62686;48.984;8.394;2024-03-23T02:05:00;5.67;;;3.57;;
38865;SDS011;62686;48.984;8.394;2024-03-23T02:07:30;6.60;;;3.92;;
38865;SDS011;62686;48.984;8.394;2024-03-23T02:10:00;7.32;;;4.03;;
38865;SDS011;62686;48.984;8.394;2024-03-23T02:12:29;8.00;;;3.80;;
38865;SDS011;62686;48.984;8.394;2024-03-23T02:14:57;5.70;;;3.95;;
38865;SDS011;62686;48.984;8.394;2024-03-23T02:17:24;6.47;;;3.50;;
38865;SDS011;62686;48.984;8.394;2024-03-23T02:19:52;7.57;;;3.95;;
38865;SDS011;62686;48.984;8.394;2024-03-23T02:22:19;6.28;;;3.80;;
38865;SDS011;62686;48.984;8.394;2024-03-23T02:24:48;5.53;;;3.80;;
38865;SDS011;62686;48.984;8.394;2024-03-23T02:27:14;5.25;;;3.75;;
38865;SDS011;62686;48.984;8.394;2024-03-23T02:29:42;4.37;;;3.53;;
38865;SDS011;62686;48.984;8.394;2024-03-23T02:32:09;6.18;;;3.72;;
38865;SDS011;62686;48.984;8.394;2024-03-23T02:34:36;5.03;;;3.58;;
38865;SDS011;62686;48.984;8.394;2024-03-23T02:37:04;5.95;;;3.70;;
38865;SDS011;62686;48.984;8.394;2024-03-23T02:39:36;6.22;;;4.07;;
38865;SDS011;62686;48.984;8.394;2024-03-23T02:42:05;5.93;;;4.03;;
38865;SDS011;62686;48.984;8.394;2024-03-23T02:44:32;4.20;;;3.33;;
38865;SDS011;62686;48.984;8.394;2024-03-23T02:46:59;7.50;;;3.50;;
38865;SDS011;62686;48.984;8.394;2024-03-23T02:49:26;5.95;;;3.90;;
38865;SDS011;62686;48.984;8.394;2024-03-23T02:51:53;6.63;;;4.22;;
38865;SDS011;62686;48.984;8.394;2024-03-23T02:54:20;5.97;;;3.63;;
38865;SDS011;62686;48.984;8.394;2024-03-23T02:56:47;7.47;;;4.22;;
38865;SDS011;62686;48.984;8.394;2024-03-23T02:59:15;7.18;;;4.05;;
38865;SDS011;62686;48.984;8.394;2024-03-23T03:01:42;7.65;;;4.22;;
38865;SDS011;62686;48.984;8.394;2024-03-23T03:04:09;11.38;;;4.30;;
38865;SDS011;62686;48.984;8.394;2024-03-23T03:06:36;9.10;;;4.50;;
38865;SDS011;62686;48.984;8.394;2024-03-23T03:09:03;6.38;;;4.30;;
38865;SDS011;62686;48.984;8.394;2024-03-23T03:11:30;8.75;;;4.70;;
38865;SDS011;62686;48.984;8.394;2024-03-23T03:13:57;8.15;;;4.60;;
38865;SDS011;62686;48.984;8.394;2024-03-23T03:16:27;12.35;;;6.07;;
38865;SDS011;62686;48.984;8.394;2024-03-23T03:18:53;9.10;;;5.60;;
38865;SDS011;62686;48.984;8.394;2024-03-23T03:21:21;8.27;;;5.00;;
38865;SDS011;62686;48.984;8.394;2024-03-23T03:23:47;9.07;;;4.72;;
38865;SDS011;62686;48.984;8.394;2024-03-23T03:26:15;8.93;;;5.07;;
38865;SDS011;62686;48.984;8.394;2024-03-23T03:28:42;9.73;;;5.18;;
38865;SDS011;62686;48.984;8.394;2024-03-23T03:31:13;8.40;;;5.53;;
38865;SDS011;62686;48.984;8.394;2024-03-23T03:33:41;9.63;;;5.63;;
38865;SDS011;62686;48.984;8.394;2024-03-23T03:36:09;10.88;;;6.55;;
38865;SDS011;62686;48.984;8.394;2024-03-23T03:38:36;12.05;;;6.75;;
38865;SDS011;62686;48.984;8.394;2024-03-23T03:41:03;14.75;;;7.28;;
38865;SDS011;62686;48.984;8.394;2024-03-23T03:43:31;12.00;;;6.47;;
38865;SDS011;62686;48.984;8.394;2024-03-23T03:46:00;13.80;;;6.63;;
38865;SDS011;62686;48.984;8.394;2024-03-23T03:48:28;13.82;;;7.70;;
38865;SDS011;62686;48.984;8.394;2024-03-23T03:50:57;14.05;;;7.88;;
38865;SDS011;62686;48.984;8.394;2024-03-23T03:53:23;12.02;;;6.82;;
38865;SDS011;62686;48.984;8.394;2024-03-23T03:55:51;13.20;;;6.67;;
38865;SDS011;62686;48.984;8.394;2024-03-23T03:58:18;15.43;;;7.20;;
38865;SDS011;62686;48.984;8.394;2024-03-23T04:00:45;15.50;;;8.07;;
38865;SDS011;62686;48.984;8.394;2024-03-23T04:03:12;17.02;;;7.88;;
38865;SDS011;62686;48.984;8.394;2024-03-23T04:05:39;14.35;;;7.38;;
38865;SDS011;62686;48.984;8.394;2024-03-23T04:08:07;16.50;;;7.27;;
38865;SDS011;62686;48.984;8.394;2024-03-23T04:10:35;12.68;;;6.93;;
38865;SDS011;62686;48.984;8.394;2024-03-23T04:13:01;14.20;;;7.85;;
38865;SDS011;62686;48.984;8.394;2024-03-23T04:15:30;17.45;;;7.75;;
38865;SDS011;62686;48.984;8.394;2024-03-23T04:17:56;16.60;;;7.97;;
38865;SDS011;62686;48.984;8.394;2024-03-23T04:20:24;13.43;;;7.37;;
38865;SDS011;62686;48.984;8.394;2024-03-23T05:22:44;5.13;;;2.65;;
38865;SDS011;62686;48.984;8.394;2024-03-23T05:34:24;5.43;;;1.17;;
38865;SDS011;62686;48.984;8.394;2024-03-23T05:36:51;1.90;;;1.02;;
38865;SDS011;62686;48.984;8.394;2024-03-23T05:39:19;1.88;;;1.15;;
38865;SDS011;62686;48.984;8.394;2024-03-23T05:41:48;1.92;;;1.40;;
38865;SDS011;62686;48.984;8.394;2024-03-23T05:44:14;1.30;;;1.02;;
38865;SDS011;62686;48.984;8.394;2024-03-23T05:46:42;1.23;;;0.80;;
38865;SDS011;62686;48.984;8.394;2024-03-23T05:49:14;1.58;;;0.90;;
38865;SDS011;62686;48.984;8.394;2024-03-23T05:51:42;2.35;;;1.15;;
38865;SDS011;62686;48.984;8.394;2024-03-23T05:54:09;1.30;;;0.88;;
38865;SDS011;62686;48.984;8.394;2024-03-23T05:56:42;1.20;;;1.10;;
38865;SDS011;62686;48.984;8.394;2024-03-23T05:59:08;1.20;;;0.90;;
38865;SDS011;62686;48.984;8.394;2024-03-23T06:01:36;0.98;;;0.90;;
38865;SDS011;62686;48.984;8.394;2024-03-23T06:04:04;1.17;;;1.05;;
38865;SDS011;62686;48.984;8.394;2024-03-23T06:06:31;1.27;;;0.80;;
38865;SDS011;62686;48.984;8.394;2024-03-23T06:08:58;0.70;;;0.57;;
38865;SDS011;62686;48.984;8.394;2024-03-23T06:11:25;1.93;;;0.87;;
38865;SDS011;62686;48.984;8.394;2024-03-23T06:13:53;1.02;;;0.90;;
38865;SDS011;62686;48.984;8.394;2024-03-23T06:16:21;1.35;;;1.00;;
38865;SDS011;62686;48.984;8.394;2024-03-23T06:18:49;0.93;;;0.82;;
38865;SDS011;62686;48.984;8.394;2024-03-23T06:21:17;1.45;;;0.73;;
38865;SDS011;62686;48.984;8.394;2024-03-23T06:23:44;0.80;;;0.70;;
38865;SDS011;62686;48.984;8.394;2024-03-23T06:26:16;0.80;;;0.80;;
38865;SDS011;62686;48.984;8.394;2024-03-23T06:28:43;1.10;;;0.98;;
38865;SDS011;62686;48.984;8.394;2024-03-23T06:31:12;1.17;;;0.80;;
38865;SDS011;62686;48.984;8.394;2024-03-23T06:33:39;1.45;;;1.10;;
38865;SDS011;62686;48.984;8.394;2024-03-23T06:36:08;1.17;;;0.77;;
38865;SDS011;62686;48.984;8.394;2024-03-23T06:38:36;1.70;;;1.05;;
38865;SDS011;62686;48.984;8.394;2024-03-23T06:41:04;1.30;;;1.20;;
38865;SDS011;62686;48.984;8.394;2024-03-23T06:46:30;0.85;;;0.63;;
38865;SDS011;62686;48.984;8.394;2024-03-23T07:07:23;0.70;;;0.70;;
38865;SDS011;62686;48.984;8.394;2024-03-23T07:20:32;0.52;;;0.52;;
38865;SDS011;62686;48.984;8.394;2024-03-23T09:02:49;3.23;;;1.77;;
38865;SDS011;62686;48.984;8.394;2024-03-23T09:05:18;6.90;;;1.90;;
38865;SDS011;62686;48.984;8.394;2024-03-23T09:07:44;5.30;;;1.92;;
38865;SDS011;62686;48.984;8.394;2024-03-23T09:10:12;5.55;;;1.98;;
38865;SDS011;62686;48.984;8.394;2024-03-23T09:12:39;5.63;;;2.40;;
38865;SDS011;62686;48.984;8.394;2024-03-23T09:15:06;5.37;;;2.50;;
38865;SDS011;62686;48.984;8.394;2024-03-23T09:17:33;5.97;;;2.30;;
38865;SDS011;62686;48.984;8.394;2024-03-23T09:20:02;9.68;;;2.53;;
38865;SDS011;62686;48.984;8.394;2024-03-23T09:22:30;5.10;;;1.60;;
38865;SDS011;62686;48.984;8.394;2024-03-23T09:24:57;6.32;;;2.25;;
38865;SDS011;62686;48.984;8.394;2024-03-23T09:27:24;4.23;;;2.10;;
38865;SDS011;62686;48.984;8.394;2024-03-23T09:29:51;7.63;;;2.30;;
38865;SDS011;62686;48.984;8.394;2024-03-23T09:32:17;5.43;;;2.28;;
38865;SDS011;62686;48.984;8.394;2024-03-23T09:34:45;5.80;;;2.13;;
38865;SDS011;62686;48.984;8.394;2024-03-23T09:37:13;5.47;;;1.88;;
38865;SDS011;62686;48.984;8.394;2024-03-23T09:39:40;5.77;;;1.87;;
38865;SDS011;62686;48.984;8.394;2024-03-23T09:42:07;5.75;;;1.92;;
38865;SDS011;62686;48.984;8.394;2024-03-23T09:44:35;4.95;;;2.25;;
38865;SDS011;62686;48.984;8.394;2024-03-23T09:47:01;8.55;;;2.50;;
38865;SDS011;62686;48.984;8.394;2024-03-23T09:49:29;6.85;;;2.50;;
38865;SDS011;62686;48.984;8.394;2024-03-23T09:51:57;7.60;;;2.03;;
38865;SDS011;62686;48.984;8.394;2024-03-23T09:54:26;5.75;;;2.40;;
38865;SDS011;62686;48.984;8.394;2024-03-23T09:56:53;5.80;;;2.80;;
38865;SDS011;62686;48.984;8.394;2024-03-23T09:59:20;5.70;;;2.50;;
38865;SDS011;62686;48.984;8.394;2024-03-23T10:01:47;6.47;;;2.30;;
38865;SDS011;62686;48.984;8.394;2024-03-23T10:07:13;9.60;;;2.60;;
38865;SDS011;62686;48.984;8.394;2024-03-23T10:09:44;8.38;;;3.55;;
38865;SDS011;62686;48.984;8.394;2024-03-23T13:20:25;1.90;;;0.70;;
38865;SDS011;62686;48.984;8.394;2024-03-23T13:28:45;2.08;;;0.77;;
38865;SDS011;62686;48.984;8.394;2024-03-23T13:31:13;1.85;;;0.90;;
38865;SDS011;62686;48.984;8.394;2024-03-23T13:36:17;2.13;;;0.98;;
38865;SDS011;62686;48.984;8.394;2024-03-23T13:38:44;4.10;;;1.20;;
38865;SDS011;62686;48.984;8.394;2024-03-23T13:41:11;2.33;;;0.80;;
38865;SDS011;62686;48.984;8.394;2024-03-23T13:43:38;1.83;;;0.88;;
38865;SDS011;62686;48.984;8.394;2024-03-23T13:46:06;3.43;;;1.10;;
38865;SDS011;62686;48.984;8.394;2024-03-23T13:54:56;1.33;;;0.85;;
38865;SDS011;62686;48.984;8.394;2024-03-23T13:57:25;2.92;;;1.02;;
38865;SDS011;62686;48.984;8.394;2024-03-23T13:59:52;3.53;;;1.00;;
38865;SDS011;62686;48.984;8.394;2024-03-23T14:02:36;3.53;;;1.15;;
38865;SDS011;62686;48.984;8.394;2024-03-23T14:05:05;1.45;;;1.10;;
38865;SDS011;62686;48.984;8.394;2024-03-23T14:07:32;2.40;;;1.20;;
38865;SDS011;62686;48.984;8.394;2024-03-23T14:15:24;2.50;;;1.10;;
38865;SDS011;62686;48.984;8.394;2024-03-23T14:17:52;1.00;;;0.88;;
38865;SDS011;62686;48.984;8.394;2024-03-23T14:20:20;1.67;;;0.98;;
38865;SDS011;62686;48.984;8.394;2024-03-23T14:22:47;6.38;;;1.20;;
38865;SDS011;62686;48.984;8.394;2024-03-23T14:25:14;2.00;;;0.93;;
38865;SDS011;62686;48.984;8.394;2024-03-23T14:27:43;1.27;;;0.95;;
38865;SDS011;62686;48.984;8.394;2024-03-23T14:30:10;1.08;;;0.73;;
38865;SDS011;62686;48.984;8.394;2024-03-23T14:32:42;1.45;;;0.70;;
38865;SDS011;62686;48.984;8.394;2024-03-23T14:38:11;2.00;;;0.70;;
38865;SDS011;62686;48.984;8.394;2024-03-23T14:54:46;1.73;;;0.80;;
38865;SDS011;62686;48.984;8.394;2024-03-23T14:57:14;2.42;;;1.02;;
38865;SDS011;62686;48.984;8.394;2024-03-23T14:59:40;1.50;;;0.75;;
38865;SDS011;62686;48.984;8.394;2024-03-23T15:02:08;2.08;;;0.90;;
38865;SDS011;62686;48.984;8.394;2024-03-23T15:04:35;1.50;;;0.90;;
38865;SDS011;62686;48.984;8.394;2024-03-23T15:07:02;1.50;;;0.70;;
38865;SDS011;62686;48.984;8.394;2024-03-23T15:09:29;1.40;;;0.80;;
38865;SDS011;62686;48.984;8.394;2024-03-23T15:22:41;4.10;;;1.17;;
38865;SDS011;62686;48.984;8.394;2024-03-23T15:25:09;2.30;;;0.82;;
38865;SDS011;62686;48.984;8.394;2024-03-23T15:27:35;1.65;;;1.02;;
38865;SDS011;62686;48.984;8.394;2024-03-23T15:30:04;2.40;;;0.97;;
38865;SDS011;62686;48.984;8.394;2024-03-23T15:32:32;1.83;;;0.73;;
38865;SDS011;62686;48.984;8.394;2024-03-23T15:35:05;3.63;;;1.00;;
38865;SDS011;62686;48.984;8.394;2024-03-23T15:37:33;1.58;;;0.60;;
38865;SDS011;62686;48.984;8.394;2024-03-23T15:40:31;3.03;;;1.10;;
38865;SDS011;62686;48.984;8.394;2024-03-23T15:43:00;2.57;;;1.20;;
38865;SDS011;62686;48.984;8.394;2024-03-23T15:45:29;1.25;;;0.73;;
38865;SDS011;62686;48.984;8.394;2024-03-23T15:53:27;1.98;;;1.20;;
38865;SDS011;62686;48.984;8.394;2024-03-23T15:58:46;2.83;;;1.00;;
38865;SDS011;62686;48.984;8.394;2024-03-23T16:01:16;1.77;;;1.20;;
38865;SDS011;62686;48.984;8.394;2024-03-23T16:23:07;2.23;;;1.00;;
38865;SDS011;62686;48.984;8.394;2024-03-23T16:30:55;2.15;;;0.70;;
38865;SDS011;62686;48.984;8.394;2024-03-23T18:15:07;3.17;;;1.05;;
38865;SDS011;62686;48.984;8.394;2024-03-23T18:17:36;3.00;;;0.98;;
38865;SDS011;62686;48.984;8.394;2024-03-23T18:22:45;3.20;;;1.30;;
38865;SDS011;62686;48.984;8.394;2024-03-23T18:25:15;2.97;;;1.15;;
38865;SDS011;62686;48.984;8.394;2024-03-23T18:27:42;2.00;;;1.17;;
38865;SDS011;62686;48.984;8.394;2024-03-23T18:30:13;3.33;;;0.98;;
38865;SDS011;62686;48.984;8.394;2024-03-23T18:32:41;2.08;;;1.20;;
38865;SDS011;62686;48.984;8.394;2024-03-23T18:35:09;1.73;;;0.77;;
38865;SDS011;62686;48.984;8.394;2024-03-23T18:37:35;2.50;;;0.90;;
38865;SDS011;62686;48.984;8.394;2024-03-23T18:40:04;1.48;;;0.93;;
38865;SDS011;62686;48.984;8.394;2024-03-23T18:42:32;2.92;;;0.80;;
38865;SDS011;62686;48.984;8.394;2024-03-23T18:50:21;3.45;;;0.88;;
38865;SDS011;62686;48.984;8.394;2024-03-23T20:22:55;1.38;;;0.88;;
38865;SDS011;62686;48.984;8.394;2024-03-23T20:42:47;3.22;;;0.60;;
38865;SDS011;62686;48.984;8.394;2024-03-23T20:45:15;1.60;;;0.80;;
38865;SDS011;62686;48.984;8.394;2024-03-23T20:47:41;0.90;;;0.50;;
38865;SDS011;62686;48.984;8.394;2024-03-23T20:50:09;2.53;;;1.20;;
38865;SDS011;62686;48.984;8.394;2024-03-23T20:52:36;4.45;;;1.00;;
38865;SDS011;62686;48.984;8.394;2024-03-23T20:55:04;1.48;;;0.90;;
38865;SDS011;62686;48.984;8.394;2024-03-23T20:57:30;1.90;;;0.75;;
38865;SDS011;62686;48.984;8.394;2024-03-23T21:00:00;2.07;;;0.70;;
38865;SDS011;62686;48.984;8.394;2024-03-23T21:02:26;2.40;;;1.00;;
38865;SDS011;62686;48.984;8.394;2024-03-23T21:04:54;1.77;;;0.88;;
38865;SDS011;62686;48.984;8.394;2024-03-23T21:07:20;1.88;;;0.70;;
38865;SDS011;62686;48.984;8.394;2024-03-23T21:09:49;1.67;;;0.75;;
38865;SDS011;62686;48.984;8.394;2024-03-23T21:12:15;2.17;;;0.70;;
38865;SDS011;62686;48.984;8.394;2024-03-23T21:14:43;0.77;;;0.50;;
38865;SDS011;62686;48.984;8.394;2024-03-23T21:17:11;3.53;;;1.00;;
38865;SDS011;62686;48.984;8.394;2024-03-23T21:19:40;2.13;;;0.73;;
38865;SDS011;62686;48.984;8.394;2024-03-23T21:22:09;3.85;;;0.70;;
38865;SDS011;62686;48.984;8.394;2024-03-23T21:24:36;1.57;;;0.57;;
38865;SDS011;62686;48.984;8.394;2024-03-23T21:27:03;1.45;;;0.55;;
38865;SDS011;62686;48.984;8.394;2024-03-23T21:29:31;1.67;;;0.80;;
38865;SDS011;62686;48.984;8.394;2024-03-23T21:31:58;0.88;;;0.55;;
38865;SDS011;62686;48.984;8.394;2024-03-23T21:34:26;2.78;;;0.95;;
38865;SDS011;62686;48.984;8.394;2024-03-23T21:36:54;2.03;;;0.80;;
38865;SDS011;62686;48.984;8.394;2024-03-23T21:39:20;1.73;;;0.80;;
38865;SDS011;62686;48.984;8.394;2024-03-23T21:41:51;1.13;;;0.80;;
38865;SDS011;62686;48.984;8.394;2024-03-23T21:44:19;5.10;;;0.90;;
38865;SDS011;62686;48.984;8.394;2024-03-23T21:46:51;4.72;;;1.02;;
38865;SDS011;62686;48.984;8.394;2024-03-23T21:49:17;2.20;;;0.77;;
38865;SDS011;62686;48.984;8.394;2024-03-23T21:51:46;1.17;;;0.57;;
38865;SDS011;62686;48.984;8.394;2024-03-23T21:54:12;4.05;;;1.70;;
38865;SDS011;62686;48.984;8.394;2024-03-23T21:56:40;1.75;;;0.80;;
38865;SDS011;62686;48.984;8.394;2024-03-23T21:59:06;1.05;;;0.75;;
38865;SDS011;62686;48.984;8.394;2024-03-23T22:01:35;4.67;;;1.10;;
38865;SDS011;62686;48.984;8.394;2024-03-23T22:04:01;1.80;;;0.80;;
38865;SDS011;62686;48.984;8.394;2024-03-23T22:06:29;2.35;;;0.73;;
38865;SDS011;62686;48.984;8.394;2024-03-23T22:08:57;2.08;;;0.95;;
38865;SDS011;62686;48.984;8.394;2024-03-23T22:11:24;4.00;;;1.30;;
38865;SDS011;62686;48.984;8.394;2024-03-23T22:13:51;2.50;;;1.10;;
38865;SDS011;62686;48.984;8.394;2024-03-23T22:16:18;0.80;;;0.75;;
38865;SDS011;62686;48.984;8.394;2024-03-23T22:18:45;3.03;;;1.48;;
38865;SDS011;62686;48.984;8.394;2024-03-23T22:21:13;3.08;;;1.17;;
38865;SDS011;62686;48.984;8.394;2024-03-23T22:23:39;1.50;;;1.10;;
38865;SDS011;62686;48.984;8.394;2024-03-23T22:26:08;1.33;;;0.80;;
38865;SDS011;62686;48.984;8.394;2024-03-23T22:28:34;1.83;;;0.85;;
38865;SDS011;62686;48.984;8.394;2024-03-23T22:31:02;2.80;;;0.90;;
38865;SDS011;62686;48.984;8.394;2024-03-23T22:33:30;3.13;;;1.00;;
38865;SDS011;62686;48.984;8.394;2024-03-23T22:35:58;3.55;;;1.10;;
38865;SDS011;62686;48.984;8.394;2024-03-23T22:38:25;1.93;;;0.57;;
38865;SDS011;62686;48.984;8.394;2024-03-23T22:40:53;1.08;;;0.60;;
38865;SDS011;62686;48.984;8.394;2024-03-23T22:43:22;2.25;;;0.82;;
38865;SDS011;62686;48.984;8.394;2024-03-23T22:45:54;1.20;;;0.47;;
38865;SDS011;62686;48.984;8.394;2024-03-23T22:48:22;1.27;;;0.68;;
38865;SDS011;62686;48.984;8.394;2024-03-23T22:50:50;2.23;;;0.80;;
38865;SDS011;62686;48.984;8.394;2024-03-23T22:53:18;2.78;;;0.70;;
38865;SDS011;62686;48.984;8.394;2024-03-23T22:55:46;2.80;;;0.73;;
38865;SDS011;62686;48.984;8.394;2024-03-23T22:58:16;2.15;;;0.70;;
38865;SDS011;62686;48.984;8.394;2024-03-23T23:00:53;3.03;;;0.63;;
38865;SDS011;62686;48.984;8.394;2024-03-23T23:03:21;0.70;;;0.40;;
38865;SDS011;62686;48.984;8.394;2024-03-23T23:05:57;3.45;;;0.52;;
38865;SDS011;62686;48.984;8.394;2024-03-23T23:08:26;1.25;;;0.80;;
38865;SDS011;62686;48.984;8.394;2024-03-23T23:10:55;1.48;;;0.70;;
38865;SDS011;62686;48.984;8.394;2024-03-23T23:13:23;1.02;;;0.60;;
38865;SDS011;62686;48.984;8.394;2024-03-23T23:15:55;3.07;;;0.90;;
38865;SDS011;62686;48.984;8.394;2024-03-23T23:18:25;1.67;;;0.60;;
38865;SDS011;62686;48.984;8.394;2024-03-23T23:20:56;1.25;;;0.68;;
38865;SDS011;62686;48.984;8.394;2024-03-23T23:23:23;1.60;;;0.75;;
38865;SDS011;62686;48.984;8.394;2024-03-23T23:25:55;1.45;;;0.70;;
38865;SDS011;62686;48.984;8.394;2024-03-23T23:28:23;4.13;;;1.03;;
38865;SDS011;62686;48.984;8.394;2024-03-23T23:30:55;2.03;;;0.70;;
38865;SDS011;62686;48.984;8.394;2024-03-23T23:33:23;1.75;;;0.80;;
38865;SDS011;62686;48.984;8.394;2024-03-23T23:35:53;2.60;;;0.60;;
38865;SDS011;62686;48.984;8.394;2024-03-23T23:38:20;1.52;;;1.00;;
38865;SDS011;62686;48.984;8.394;2024-03-23T23:40:48;4.20;;;0.77;;
38865;SDS011;62686;48.984;8.394;2024-03-23T23:43:15;2.42;;;1.00;;
38865;SDS011;62686;48.984;8.394;2024-03-23T23:45:48;2.50;;;1.30;;
38865;SDS011;62686;48.984;8.394;2024-03-23T23:48:14;1.45;;;0.68;;
38865;SDS011;62686;48.984;8.394;2024-03-23T23:50:42;4.32;;;0.85;;
38865;SDS011;62686;48.984;8.394;2024-03-23T23:53:08;1.90;;;0.90;;
38865;SDS011;62686;48.984;8.394;2024-03-23T23:55:38;1.58;;;0.90;;
38865;SDS011;62686;48.984;8.394;2024-03-23T23:58:05;1.73;;;0.90;;
